Flight Track Log - Related Links

Times and Time Zones

All times are in EST time to prevent confusion due to time zone crossing. See the UPS1337 flight status page for this flight to view local times or setup timezone preferences in your user account.

Time Position Orientation Groundspeed Altitude Reporting Facility
EST Latitude Longitude Course Direction KTS MPH feet Rate Location/Type
Mon 09:42:52 PM 27.9000 -82.6833 164° South 157 181 900  Level Tampa TRACON
Mon 09:43:52 PM 27.8500 -82.6667 164° South 217 250 3,000 2,850 Climbing Tampa TRACON
Mon 09:44:52 PM 27.8000 -82.7167 222° Southwest 280 322 6,600 3,055 Climbing Tampa TRACON
Mon 09:46:37 PM 27.9225 -82.7586 343° North 273 314 11,400 2,073 Climbing Jacksonville Center
Mon 09:47:37 PM 28.0289 -82.7608 359° North 318 366 12,300 1,850 Climbing Jacksonville Center
Mon 09:48:37 PM 28.1353 -82.7608 360° North 364 419 15,100 2,650 Climbing Jacksonville Center
Mon 09:49:37 PM 28.2500 -82.7631 359° North 392 451 17,600 2,650 Climbing Jacksonville Center
Mon 09:50:37 PM 28.3628 -82.7958 346° North 405 466 20,400 2,550 Climbing Jacksonville Center
Mon 09:51:37 PM 28.4797 -82.8311 345° North 417 480 22,700 1,850 Climbing Jacksonville Center
Mon 09:52:37 PM 28.6006 -82.8667 346° North 430 495 24,100 1,550 Climbing Jacksonville Center
Mon 09:53:37 PM 28.7092 -82.8972 346° North 443 510 25,800 1,378 Climbing Jacksonville Center
Mon 09:59:48 PM 29.4719 -83.1236 345° North 432 497 34,000 1,171 Climbing FlightAware ADS-B
Mon 10:00:37 PM 29.5503 -83.1503 345° North 437 503 34,000  Level Jacksonville Center
Mon 10:01:37 PM 29.6669 -83.1867 345° North 437 503 34,000  Level Jacksonville Center
Mon 10:02:37 PM 29.7858 -83.2206 346° North 437 503 34,000  Level Jacksonville Center
Mon 10:03:37 PM 29.9153 -83.2617 345° North 437 503 34,000  Level Jacksonville Center
Mon 10:09:24 PM 30.6064 -83.4694 345° North 440 506 34,000  Level FlightAware ADS-B (KONZ)
Mon 10:10:07 PM 30.6913 -83.4955 345° North 438 504 34,000  Level FlightAware ADS-B (KONZ)
Mon 10:12:02 PM 30.9060 -83.5624 345° North 435 501 34,000  Level FlightAware ADS-B (KONZ)
Mon 10:13:45 PM 31.1163 -83.6283 345° North 434 499 34,000  Level FlightAware ADS-B (KONZ)
Mon 10:14:34 PM 31.1931 -83.6531 345° North 436 502 34,000  Level Atlanta Center
Mon 10:15:34 PM 31.3058 -83.6889 345° North 444 511 34,000  Level Atlanta Center
Mon 10:16:34 PM 31.4206 -83.7250 345° North 437 503 34,000  Level Atlanta Center
Mon 10:17:34 PM 31.5417 -83.7661 344° North 427 491 34,000  Level Atlanta Center
Mon 10:18:34 PM 31.6567 -83.8069 343° North 421 484 34,000  Level Atlanta Center
Mon 10:19:34 PM 31.7611 -83.8289 350° North 421 484 34,000  Level Atlanta Center
Mon 10:20:34 PM 31.8925 -83.8750 343° North 432 497 34,000  Level Atlanta Center
Mon 10:21:34 PM 32.0053 -83.9114 345° North 432 497 34,000  Level Atlanta Center
Mon 10:22:34 PM 32.1203 -83.9481 345° North 432 497 34,000  Level Atlanta Center
Mon 10:23:34 PM 32.2331 -83.9825 346° North 427 491 34,000  Level Atlanta Center
Mon 10:24:34 PM 32.3247 -84.0119 345° North 422 486 34,000  Level Atlanta Center
Mon 10:25:34 PM 32.4478 -84.0536 344° North 417 480 34,000  Level Atlanta Center
Mon 10:26:34 PM 32.5606 -84.0906 345° North 417 480 34,000  Level Atlanta Center
Mon 10:27:34 PM 32.6733 -84.1253 345° North 417 480 34,000  Level Atlanta Center
Mon 10:28:34 PM 32.7861 -84.1622 345° North 417 480 34,000  Level Atlanta Center
Mon 10:29:34 PM 32.9111 -84.2047 344° North 422 486 34,000  Level Atlanta Center
Mon 10:30:34 PM 33.0239 -84.2444 344° North 422 486 34,000  Level Atlanta Center
Mon 10:31:34 PM 33.1344 -84.2794 345° North 422 486 34,000  Level Atlanta Center
Mon 10:32:34 PM 33.2492 -84.3169 345° North 416 479 34,000  Level Atlanta Center
Mon 10:37:57 PM 33.9335 -84.4428 355° North 594 684 34,000  Level FlightAware ADS-B (KDZJ)
Mon 10:38:38 PM 34.0120 -84.4531 354° North 417 480 34,000  Level FlightAware ADS-B (KDZJ)
Mon 10:39:18 PM 34.0892 -84.4631 354° North 404 465 34,000  Level FlightAware ADS-B (KDZJ)
Mon 10:39:59 PM 34.1659 -84.4732 354° North 407 468 34,000  Level FlightAware ADS-B (KDZJ)
Mon 10:40:39 PM 34.2403 -84.4831 354° North 405 466 34,000  Level FlightAware ADS-B (KDZJ)
Mon 10:41:19 PM 34.3156 -84.4932 354° North 402 463 34,000  Level FlightAware ADS-B (KDZJ)
Mon 10:41:59 PM 34.3913 -84.5032 354° North 403 464 34,000  Level FlightAware ADS-B (KDZJ)
Mon 10:42:38 PM 34.4657 -84.5129 354° North 407 468 34,000  Level FlightAware ADS-B (KDZJ)
Mon 10:43:19 PM 34.5410 -84.5231 354° North 403 464 34,000  Level FlightAware ADS-B (KDZJ)
Mon 10:43:58 PM 34.6147 -84.5328 354° North 401 461 34,000  Level FlightAware ADS-B (KDZJ)
Mon 10:44:39 PM 34.6896 -84.5429 354° North 402 463 34,000  Level FlightAware ADS-B (KDZJ)
Mon 10:45:18 PM 34.7632 -84.5530 354° North 403 464 34,000  Level FlightAware ADS-B (KDZJ)
Mon 10:45:59 PM 34.8380 -84.5629 354° North 404 465 34,000  Level FlightAware ADS-B (KDZJ)
Mon 10:46:38 PM 34.9118 -84.5726 354° North 403 464 34,000  Level FlightAware ADS-B (KDZJ)
Mon 10:47:19 PM 34.9878 -84.5829 354° North 403 464 34,000  Level FlightAware ADS-B (KDZJ)
Mon 10:47:58 PM 35.0599 -84.5924 354° North 402 463 34,000  Level FlightAware ADS-B (KDZJ)
Mon 10:48:38 PM 35.1345 -84.6025 354° North 402 463 34,000  Level FlightAware ADS-B (KDZJ)
Mon 10:49:16 PM 35.2041 -84.6121 354° North 403 464 34,000  Level FlightAware ADS-B (KDZJ)
Mon 10:50:27 PM 35.2674 -84.6207 354° North 403 464 34,000  Level FlightAware ADS-B (KMDQ)
Mon 10:51:47 PM 35.3746 -84.6353 354° North 403 464 34,000  Level FlightAware ADS-B (KMDQ)
Mon 10:53:34 PM 35.4591 -84.6466 354° North 401 461 34,000  Level FlightAware ADS-B (KMDQ)
Mon 10:54:47 PM 35.4591 -84.6466 353° North 398 458 34,000 -113 Level FlightAware ADS-B (KMDQ)
Mon 10:57:07 PM 35.9959 -84.7226 353° North 404 465 33,600 -700 Descending FlightAware ADS-B (KMDQ)
Mon 10:57:47 PM 36.0682 -84.7331 353° North 405 466 31,900 -1,108 Descending FlightAware ADS-B (KMDQ)
Mon 11:00:22 PM 36.3897 -84.7796 354° North 441 507 30,000 -707 Descending FlightAware ADS-B
Mon 11:01:36 PM 36.5396 -84.7997 354° North 446 513 29,200 -805 Descending FlightAware ADS-B
Mon 11:02:51 PM 36.6889 -84.8197 354° North 438 504 28,000 -803 Descending FlightAware ADS-B
Mon 11:03:58 PM 36.7498 -84.8283 354° North 438 504 27,300 -1,091 Descending FlightAware ADS-B
Mon 11:05:03 PM 36.9608 -84.8570 354° North 446 513 25,600 -1,898 Descending FlightAware ADS-B
Mon 11:05:36 PM 37.0228 -84.8656 354° North 436 502 24,200 -2,974 Descending FlightAware ADS-B
Mon 11:06:58 PM 37.1739 -84.8865 354° North 422 486 19,900 -2,917 Descending FlightAware ADS-B
Mon 11:08:00 PM 37.3069 -84.9047 354° North 409 471 17,200 -2,571 Descending FlightAware ADS-B
Mon 11:09:04 PM 37.4253 -84.9207 354° North 380 437 14,500 -1,802 Descending FlightAware ADS-B
Mon 11:12:13 PM 37.7166 -85.0386 312° West 351 404 9,600 -1,205 Descending FlightAware ADS-B
Mon 11:13:13 PM 37.7721 -85.1219 298° West 284 327 9,500 -850 Descending FlightAware ADS-B
Mon 11:14:13 PM 37.8049 -85.2087 295° West 270 311 7,900 -1,664 Descending FlightAware ADS-B
Mon 11:15:12 PM 37.8361 -85.2927 296° West 267 307 6,200 -1,714 Descending FlightAware ADS-B
Mon 11:16:12 PM 37.8692 -85.3790 295° West 270 311 4,500 -1,557 Descending FlightAware ADS-B
Mon 11:17:23 PM 37.9060 -85.4774 295° West 260 299 2,800 -877 Descending FlightAware ADS-B
Mon 11:18:22 PM 37.9394 -85.5554 315° West 257 296 2,600 -99 Descending FlightAware ADS-B
Mon 11:19:24 PM 37.9861 -85.6135 315° West 213 245 2,600  Level FlightAware ADS-B
Mon 11:20:24 PM 38.0280 -85.6670 315° West 194 223 2,600 -200 Level FlightAware ADS-B
Mon 11:21:24 PM 38.0710 -85.6915 345° North 162 186 2,200 -632 Descending FlightAware ADS-B
Mon 11:22:37 PM 38.1142 -85.7063 347° North 123 142 1,200 -789 Descending FlightAware ADS-B
Mon 11:23:18 PM 38.1378 -85.7144 345° North 121 139 700 -732 Descending FlightAware ADS-B
Mon 11:29:00 PM 38.1667 -85.7333 208° Southwest  Level FlightAware Approximate
Mon 11:30:00 PM 38.1741 -85.7365 208° Southwest  Level Estimated
Mon 11:31:00 PM 38.1741 -85.7365 208° Southwest  Level Estimated

Login

Don't have an account? Register now (free) for customized features, flight alerts, and more!